Wheaton, Illinois
Current Conditions -  °F | °C
As of 2:52 PM on Monday 22 Dec 2014 (Local Time) from KDPA Reporting Station
Light Rain Light Rain  
Wind Chill: 29°   Ceiling: 600
Heat Index: 37°   Visibility: 1.5mi
Dew Point: 35°   Wind: 12mph
Humidity: 93%   Direction: 90°E
Pressure: 29.68"   Gusts: NA
Location:  41.87°N, 88.11°W
Report Text: KDPA 222052Z 09010KT 1 1/2SM -RA BR OVC006 03/02 A2968 RMK AO2 CIG 005V010 SLP056 P0002 60004 T00280017 56036
Loading
Personal Weather Stations






























Interactive Weather Map New forecast layout! Learn more

10-Day Weather Forecast

Advertisements
Track Severe Weather on mobile